Time,TemperatureF,DewpointF,PressureIn,WindDirection,WindDirectionDegrees,WindSpeedMPH,WindSpeedGustMPH,Humidity,HourlyPrecipIn,Conditions,Clouds,dailyrainin,SoftwareType,DateUTC
2013-08-13 00:01:00,68.2,67.6,29.90,South,180,0.0,0.0,98,0.00,SKC,,0.00,WeatherDisplay:10.37,2013-08-13 04:01:00,
2013-08-13 00:02:00,68.2,67.6,29.90,South,180,0.0,0.0,98,0.00,SKC,,0.00,WeatherDisplay:10.37,2013-08-13 04:02:00,
2013-08-13 00:04:00,68.2,67.6,29.90,South,180,0.0,0.0,98,0.00,SKC,,0.00,WeatherDisplay:10.37,2013-08-13 04:04:00,
2013-08-13 00:10:00,68.2,67.6,29.90,South,180,0.0,0.0,98,0.00,SKC,SKC,0.00,WeatherDisplay:10.37,2013-08-13 04:10:00,
2013-08-13 00:15:00,68.0,67.4,29.90,South,180,0.0,0.0,98,0.00,SKC,,0.00,WeatherDisplay:10.37,2013-08-13 04:15:00,
2013-08-13 00:20:00,68.0,67.4,29.90,South,180,0.0,0.0,98,0.00,SKC,,0.00,WeatherDisplay:10.37,2013-08-13 04:20:00,
2013-08-13 00:25:00,68.0,67.7,29.90,South,180,0.0,0.0,99,0.00,SKC,,0.00,WeatherDisplay:10.37,2013-08-13 04:25:00,
2013-08-13 00:30:00,68.0,67.7,29.89,South,180,0.0,0.0,99,0.00,SKC,,0.00,WeatherDisplay:10.37,2013-08-13 04:30:00,
2013-08-13 00:35:00,68.0,67.7,29.89,South,180,0.0,0.0,99,0.00,SKC,,0.00,WeatherDisplay:10.37,2013-08-13 04:35:00,
2013-08-13 00:40:00,68.0,67.7,29.89,South,180,0.0,0.0,99,0.00,SKC,,0.00,WeatherDisplay:10.37,2013-08-13 04:40:00,
2013-08-13 00:45:00,68.0,67.7,29.89,South,180,0.0,0.0,99,0.00,SKC,,0.00,WeatherDisplay:10.37,2013-08-13 04:45:00,
2013-08-13 00:50:00,68.0,67.7,29.89,South,180,0.0,0.0,99,0.00,SKC,,0.00,WeatherDisplay:10.37,2013-08-13 04:50:00,
2013-08-13 00:55:00,68.0,67.7,29.88,South,180,0.0,0.0,99,0.00,SKC,,0.00,WeatherDisplay:10.37,2013-08-13 04:55:00,
2013-08-13 01:00:00,68.2,67.6,29.88,South,180,0.0,0.0,98,0.00,SKC,,0.00,WeatherDisplay:10.37,2013-08-13 05:00:00,
2013-08-13 01:05:00,68.4,67.8,29.87,South,180,0.0,0.0,98,0.00,SKC,,0.00,WeatherDisplay:10.37,2013-08-13 05:05:00,
2013-08-13 01:10:00,68.4,67.8,29.87,South,180,0.0,0.0,98,0.00,SKC,,0.00,WeatherDisplay:10.37,2013-08-13 05:10:00,
2013-08-13 01:15:00,68.4,67.8,29.87,South,180,0.0,0.0,98,0.00,SKC,,0.00,WeatherDisplay:10.37,2013-08-13 05:15:00,
2013-08-13 01:20:00,68.4,67.8,29.86,South,180,0.0,0.0,98,0.00,SKC,,0.00,WeatherDisplay:10.37,2013-08-13 05:20:00,
2013-08-13 01:25:00,68.4,67.8,29.86,South,180,0.0,0.0,98,0.00,SKC,,0.00,WeatherDisplay:10.37,2013-08-13 05:25:00,
2013-08-13 01:30:00,68.4,67.8,29.85,South,180,0.0,0.0,98,0.00,SKC,,0.00,WeatherDisplay:10.37,2013-08-13 05:30:00,
2013-08-13 01:35:00,68.4,67.8,29.85,South,180,0.0,0.0,98,0.00,SKC,,0.00,WeatherDisplay:10.37,2013-08-13 05:35:00,
2013-08-13 01:40:00,68.4,67.8,29.85,South,180,0.0,0.0,98,0.00,SKC,,0.00,WeatherDisplay:10.37,2013-08-13 05:40:00,
2013-08-13 01:45:00,68.2,67.6,29.85,South,180,0.0,0.0,98,0.00,SKC,,0.00,WeatherDisplay:10.37,2013-08-13 05:45:00,
2013-08-13 01:50:00,68.2,67.6,29.85,South,180,0.0,0.0,98,0.00,SKC,,0.00,WeatherDisplay:10.37,2013-08-13 05:50:00,
2013-08-13 01:55:00,68.2,67.6,29.84,South,180,0.0,0.0,98,0.00,SKC,,0.00,WeatherDisplay:10.37,2013-08-13 05:55:00,
2013-08-13 02:00:00,68.2,67.6,29.84,South,180,0.0,0.0,98,0.00,SKC,,0.00,WeatherDisplay:10.37,2013-08-13 06:00:00,
2013-08-13 02:05:00,68.4,67.8,29.84,South,180,2.4,4.4,98,0.00,SKC,,0.00,WeatherDisplay:10.37,2013-08-13 06:05:00,
2013-08-13 02:10:00,68.7,67.8,29.84,South,180,1.1,3.6,97,0.00,SKC,,0.00,WeatherDisplay:10.37,2013-08-13 06:10:00,
2013-08-13 02:15:00,69.1,67.6,29.83,South,180,3.5,4.6,95,0.00,SKC,,0.00,WeatherDisplay:10.37,2013-08-13 06:15:00,
2013-08-13 02:20:00,69.3,67.8,29.83,South,180,3.0,5.8,95,0.00,SKC,,0.00,WeatherDisplay:10.37,2013-08-13 06:20:00,
2013-08-13 02:25:00,69.3,67.8,29.83,South,180,5.2,6.1,95,0.00,SKC,,0.00,WeatherDisplay:10.37,2013-08-13 06:25:00,
2013-08-13 02:30:00,69.3,67.8,29.84,South,180,6.0,7.8,95,0.01,RA,,0.01,WeatherDisplay:10.37,2013-08-13 06:30:00,
2013-08-13 02:35:00,69.1,68.2,29.84,South,180,3.6,9.2,97,0.02,RA,,0.02,WeatherDisplay:10.37,2013-08-13 06:35:00,
2013-08-13 02:40:00,68.7,68.1,29.84,South,180,5.4,6.9,98,0.04,RA,,0.04,WeatherDisplay:10.37,2013-08-13 06:40:00,
2013-08-13 02:45:00,68.4,68.1,29.84,South,180,4.5,5.8,99,0.06,RA,,0.06,WeatherDisplay:10.37,2013-08-13 06:45:00,
2013-08-13 02:50:00,68.2,67.9,29.84,South,180,1.5,5.8,99,0.07,RA,,0.07,WeatherDisplay:10.37,2013-08-13 06:50:00,
2013-08-13 02:55:00,68.2,68.2,29.84,SSE,158,3.6,7.8,100,0.08,RA,,0.09,WeatherDisplay:10.37,2013-08-13 06:55:00,
2013-08-13 03:00:00,68.0,68.0,29.84,SSE,158,3.0,6.9,100,0.10,RA,,0.11,WeatherDisplay:10.37,2013-08-13 07:00:00,
2013-08-13 03:05:00,67.6,67.3,29.85,SSE,158,4.5,6.1,99,0.13,RA,,0.14,WeatherDisplay:10.37,2013-08-13 07:05:00,
2013-08-13 03:10:00,67.3,67.0,29.85,SSE,158,4.7,6.9,99,0.17,RA,,0.17,WeatherDisplay:10.37,2013-08-13 07:10:00,
2013-08-13 03:15:00,66.9,66.6,29.85,West,270,5.1,9.5,99,0.19,RA,,0.19,WeatherDisplay:10.37,2013-08-13 07:15:00,
2013-08-13 03:20:00,66.9,66.6,29.84,South,180,4.7,5.8,99,0.21,RA,,0.21,WeatherDisplay:10.37,2013-08-13 07:20:00,
2013-08-13 03:25:00,66.7,66.4,29.84,South,180,2.9,4.6,99,0.22,RA,,0.22,WeatherDisplay:10.37,2013-08-13 07:25:00,
2013-08-13 03:30:00,66.6,66.3,29.84,South,180,2.8,3.6,99,0.22,RA,,0.23,WeatherDisplay:10.37,2013-08-13 07:30:00,
2013-08-13 03:35:00,66.6,66.3,29.84,South,180,0.0,0.0,99,0.21,RA,,0.23,WeatherDisplay:10.37,2013-08-13 07:35:00,
2013-08-13 03:40:00,66.4,66.1,29.84,South,180,0.0,0.0,99,0.20,RA,,0.24,WeatherDisplay:10.37,2013-08-13 07:40:00,
2013-08-13 03:45:00,66.4,66.1,29.84,South,180,0.0,0.0,99,0.18,RA,,0.24,WeatherDisplay:10.37,2013-08-13 07:45:00,
2013-08-13 03:50:00,66.2,65.9,29.84,South,180,0.8,2.3,99,0.17,RA,,0.25,WeatherDisplay:10.37,2013-08-13 07:50:00,
2013-08-13 03:55:00,66.0,65.7,29.84,South,180,2.5,3.6,99,0.17,RA,,0.25,WeatherDisplay:10.37,2013-08-13 07:55:00,
2013-08-13 04:00:00,66.0,66.0,29.84,South,180,0.0,2.3,100,0.16,RA,,0.26,WeatherDisplay:10.37,2013-08-13 08:00:00,
2013-08-13 04:05:00,66.0,66.0,29.85,South,180,0.0,0.0,100,0.15,RA,,0.28,WeatherDisplay:10.37,2013-08-13 08:05:00,
2013-08-13 04:10:00,66.0,66.0,29.85,South,180,0.0,0.0,100,0.12,RA,,0.29,WeatherDisplay:10.37,2013-08-13 08:10:00,
2013-08-13 04:15:00,66.0,66.0,29.85,South,180,0.0,0.0,100,0.11,RA,,0.30,WeatherDisplay:10.37,2013-08-13 08:15:00,
2013-08-13 04:20:00,65.8,65.8,29.84,South,180,0.0,0.0,100,0.10,RA,,0.32,WeatherDisplay:10.37,2013-08-13 08:20:00,
2013-08-13 04:25:00,65.8,65.8,29.84,South,180,0.0,0.0,100,0.11,RA,,0.33,WeatherDisplay:10.37,2013-08-13 08:25:00,
2013-08-13 04:30:00,65.8,65.8,29.83,South,180,0.0,0.0,100,0.13,RA,,0.36,WeatherDisplay:10.37,2013-08-13 08:30:00,
2013-08-13 04:35:00,65.8,65.8,29.83,South,180,0.0,0.0,100,0.15,RA,,0.38,WeatherDisplay:10.37,2013-08-13 08:35:00,
2013-08-13 04:40:00,65.8,65.8,29.83,South,180,0.0,0.0,100,0.15,RA,,0.39,WeatherDisplay:10.37,2013-08-13 08:40:00,
2013-08-13 04:45:00,65.8,65.8,29.83,South,180,0.0,0.0,100,0.16,RA,,0.40,WeatherDisplay:10.37,2013-08-13 08:45:00,
2013-08-13 04:50:00,65.8,65.8,29.83,South,180,0.0,0.0,100,0.17,RA,,0.41,WeatherDisplay:10.37,2013-08-13 08:50:00,
2013-08-13 04:55:00,65.8,65.8,29.83,South,180,2.5,3.5,100,0.17,RA,,0.42,WeatherDisplay:10.37,2013-08-13 08:55:00,
2013-08-13 05:00:00,65.8,65.8,29.83,South,180,0.0,0.0,100,0.16,RA,,0.42,WeatherDisplay:10.37,2013-08-13 09:00:00,
2013-08-13 05:05:00,65.8,65.8,29.83,South,180,2.3,3.6,100,0.14,RA,,0.42,WeatherDisplay:10.37,2013-08-13 09:05:00,
2013-08-13 05:10:00,65.8,65.8,29.83,South,180,1.8,3.5,100,0.13,SKC,,0.42,WeatherDisplay:10.37,2013-08-13 09:10:00,
2013-08-13 05:15:00,65.8,65.8,29.83,South,180,2.0,4.6,100,0.12,SKC,,0.42,WeatherDisplay:10.37,2013-08-13 09:15:00,
2013-08-13 05:20:00,65.8,65.8,29.82,South,180,2.1,3.6,100,0.11,SKC,,0.42,WeatherDisplay:10.37,2013-08-13 09:20:00,
2013-08-13 05:25:00,65.8,65.8,29.82,South,180,0.6,2.3,100,0.09,SKC,,0.42,WeatherDisplay:10.37,2013-08-13 09:25:00,
2013-08-13 05:30:00,65.8,65.8,29.83,South,180,2.3,2.7,100,0.06,SKC,,0.42,WeatherDisplay:10.37,2013-08-13 09:30:00,
2013-08-13 05:35:00,65.8,65.8,29.83,South,180,0.0,2.3,100,0.04,SKC,,0.42,WeatherDisplay:10.37,2013-08-13 09:35:00,
2013-08-13 05:40:00,65.8,65.8,29.83,South,180,1.1,2.3,100,0.03,SKC,,0.42,WeatherDisplay:10.37,2013-08-13 09:40:00,
2013-08-13 05:45:00,65.8,65.8,29.82,South,180,1.4,2.7,100,0.02,SKC,,0.42,WeatherDisplay:10.37,2013-08-13 09:45:00,
2013-08-13 05:50:00,65.7,65.7,29.82,South,180,0.0,0.0,100,0.01,SKC,,0.42,WeatherDisplay:10.37,2013-08-13 09:50:00,
2013-08-13 05:55:00,65.7,65.7,29.82,South,180,3.3,3.6,100,0.00,SKC,,0.42,WeatherDisplay:10.37,2013-08-13 09:55:00,
2013-08-13 06:00:00,65.5,65.5,29.82,South,180,2.3,4.6,100,0.00,SKC,,0.42,WeatherDisplay:10.37,2013-08-13 10:00:00,
2013-08-13 06:05:00,65.5,65.5,29.82,South,180,2.0,4.6,100,0.00,SKC,,0.42,WeatherDisplay:10.37,2013-08-13 10:05:00,
2013-08-13 06:11:00,65.5,65.5,29.82,South,180,2.0,5.8,100,0.00,SKC,,0.42,WeatherDisplay:10.37,2013-08-13 10:11:00,
2013-08-13 06:17:00,65.3,65.3,29.82,South,180,2.1,3.6,100,0.00,SKC,,0.42,WeatherDisplay:10.37,2013-08-13 10:17:00,
2013-08-13 06:22:00,65.1,65.1,29.82,South,180,2.6,3.5,100,0.00,OVC,,0.42,WeatherDisplay:10.37,2013-08-13 10:22:00,
2013-08-13 06:27:00,65.1,65.1,29.82,South,180,3.3,4.6,100,0.00,OVC,,0.42,WeatherDisplay:10.37,2013-08-13 10:27:00,
2013-08-13 06:32:00,65.1,65.1,29.82,South,180,1.1,2.3,100,0.00,OVC,,0.42,WeatherDisplay:10.37,2013-08-13 10:32:00,
2013-08-13 06:37:00,65.1,65.1,29.82,South,180,4.5,5.8,100,0.00,OVC,,0.42,WeatherDisplay:10.37,2013-08-13 10:37:00,
2013-08-13 06:42:00,65.1,65.1,29.82,South,180,0.0,2.3,100,0.00,OVC,,0.42,WeatherDisplay:10.37,2013-08-13 10:42:00,
2013-08-13 06:47:00,65.1,65.1,29.82,South,180,2.8,4.6,100,0.00,OVC,,0.42,WeatherDisplay:10.37,2013-08-13 10:47:00,
2013-08-13 06:52:00,64.9,64.9,29.83,South,180,3.2,4.6,100,0.00,OVC,,0.42,WeatherDisplay:10.37,2013-08-13 10:52:00,
2013-08-13 06:57:00,64.9,64.9,29.83,South,180,3.5,5.8,100,0.00,OVC,,0.42,WeatherDisplay:10.37,2013-08-13 10:57:00,
2013-08-13 07:02:00,64.9,64.9,29.83,South,180,2.8,5.8,100,0.00,BKN,,0.42,WeatherDisplay:10.37,2013-08-13 11:02:00,
2013-08-13 07:07:00,64.9,64.9,29.83,South,180,0.0,2.3,100,0.00,BKN,,0.42,WeatherDisplay:10.37,2013-08-13 11:07:00,
2013-08-13 07:12:00,64.9,64.9,29.83,South,180,3.1,5.8,100,0.00,BKN,,0.42,WeatherDisplay:10.37,2013-08-13 11:12:00,
2013-08-13 07:17:00,64.9,64.9,29.83,South,180,3.9,5.8,100,0.00,BKN,,0.42,WeatherDisplay:10.37,2013-08-13 11:17:00,
2013-08-13 07:22:00,64.9,64.9,29.83,South,180,5.1,6.1,100,0.00,BKN,,0.42,WeatherDisplay:10.37,2013-08-13 11:22:00,
2013-08-13 07:27:00,64.9,64.9,29.83,South,180,3.9,5.8,100,0.00,BKN,,0.42,WeatherDisplay:10.37,2013-08-13 11:27:00,
2013-08-13 07:32:00,65.1,65.1,29.84,South,180,2.6,4.6,100,0.00,BKN,,0.42,WeatherDisplay:10.37,2013-08-13 11:32:00,
2013-08-13 07:37:00,65.1,65.1,29.84,South,180,3.2,4.6,100,0.00,BKN,,0.42,WeatherDisplay:10.37,2013-08-13 11:37:00,
2013-08-13 07:42:00,65.1,65.1,29.83,South,180,4.1,6.9,100,0.00,BKN,,0.42,WeatherDisplay:10.37,2013-08-13 11:42:00,
2013-08-13 07:47:00,65.3,65.3,29.83,South,180,3.4,4.6,100,0.00,BKN,,0.42,WeatherDisplay:10.37,2013-08-13 11:47:00,
2013-08-13 07:52:00,65.3,65.3,29.84,South,180,4.0,5.8,100,0.00,BKN,,0.42,WeatherDisplay:10.37,2013-08-13 11:52:00,
2013-08-13 07:57:00,65.3,65.3,29.84,South,180,3.4,5.8,100,0.00,BKN,,0.42,WeatherDisplay:10.37,2013-08-13 11:57:00,
2013-08-13 08:02:00,65.3,65.3,29.84,South,180,3.5,5.8,100,0.00,BKN,,0.42,WeatherDisplay:10.37,2013-08-13 12:02:00,
2013-08-13 08:07:00,65.5,65.5,29.83,South,180,2.3,3.5,100,0.00,BKN,,0.42,WeatherDisplay:10.37,2013-08-13 12:07:00,
2013-08-13 08:12:00,65.7,65.4,29.83,North,360,4.6,8.1,99,0.00,BKN,,0.42,WeatherDisplay:10.37,2013-08-13 12:12:00,
2013-08-13 08:17:00,65.8,65.5,29.83,North,360,3.9,4.6,99,0.00,BKN,,0.42,WeatherDisplay:10.37,2013-08-13 12:17:00,
2013-08-13 08:22:00,65.8,65.5,29.83,North,360,2.5,5.8,99,0.00,BKN,,0.42,WeatherDisplay:10.37,2013-08-13 12:22:00,
2013-08-13 08:27:00,65.8,65.5,29.83,North,360,3.4,4.6,99,0.00,BKN,,0.42,WeatherDisplay:10.37,2013-08-13 12:27:00,
2013-08-13 08:32:00,66.0,65.7,29.84,North,360,4.0,5.8,99,0.00,BKN,,0.42,WeatherDisplay:10.37,2013-08-13 12:32:00,
2013-08-13 08:37:00,66.0,65.4,29.84,North,360,3.9,6.9,98,0.00,OVC,,0.42,WeatherDisplay:10.37,2013-08-13 12:37:00,
2013-08-13 08:42:00,66.2,65.6,29.83,NNE,22,4.6,8.1,98,0.00,OVC,,0.42,WeatherDisplay:10.37,2013-08-13 12:42:00,
2013-08-13 08:47:00,66.7,65.8,29.83,SSW,202,3.8,6.9,97,0.00,OVC,,0.42,WeatherDisplay:10.37,2013-08-13 12:47:00,
2013-08-13 08:52:00,66.7,65.8,29.83,SSW,202,3.2,5.8,97,0.00,OVC,,0.42,WeatherDisplay:10.37,2013-08-13 12:52:00,
2013-08-13 08:57:00,66.7,65.8,29.84,SSW,202,3.7,6.1,97,0.00,OVC,,0.42,WeatherDisplay:10.37,2013-08-13 12:57:00,
2013-08-13 09:02:00,66.9,66.0,29.84,SSW,202,3.2,3.6,97,0.00,OVC,,0.42,WeatherDisplay:10.37,2013-08-13 13:02:00,
2013-08-13 09:07:00,67.1,65.9,29.84,SSW,202,0.0,2.3,96,0.00,OVC,,0.42,WeatherDisplay:10.37,2013-08-13 13:07:00,
2013-08-13 09:12:00,67.1,65.9,29.84,SSW,202,3.8,5.3,96,0.00,OVC,,0.42,WeatherDisplay:10.37,2013-08-13 13:12:00,
2013-08-13 09:17:00,67.1,65.6,29.84,SSW,202,2.5,6.9,95,0.00,OVC,,0.42,WeatherDisplay:10.37,2013-08-13 13:17:00,
2013-08-13 09:22:00,66.7,65.2,29.84,NW,315,3.9,8.1,95,0.00,OVC,,0.42,WeatherDisplay:10.37,2013-08-13 13:22:00,
2013-08-13 09:27:00,66.6,65.4,29.84,NW,315,3.6,5.3,96,0.00,OVC,,0.42,WeatherDisplay:10.37,2013-08-13 13:27:00,
2013-08-13 09:32:00,66.7,65.5,29.83,SSE,158,2.1,5.8,96,0.00,OVC,,0.42,WeatherDisplay:10.37,2013-08-13 13:32:00,
2013-08-13 09:37:00,66.9,65.7,29.83,SSE,158,1.0,6.1,96,0.00,OVC,,0.42,WeatherDisplay:10.37,2013-08-13 13:37:00,
2013-08-13 09:42:00,66.7,65.5,29.84,SSE,158,6.3,7.8,96,0.00,OVC,,0.42,WeatherDisplay:10.37,2013-08-13 13:42:00,
2013-08-13 09:47:00,66.7,65.5,29.84,SSE,158,3.4,6.9,96,0.00,OVC,,0.42,WeatherDisplay:10.37,2013-08-13 13:47:00,
2013-08-13 09:52:00,67.1,65.9,29.84,SSE,158,4.0,5.8,96,0.00,OVC,,0.42,WeatherDisplay:10.37,2013-08-13 13:52:00,
2013-08-13 09:57:00,67.3,66.1,29.84,SSE,158,4.4,10.4,96,0.00,OVC,,0.42,WeatherDisplay:10.37,2013-08-13 13:57:00,
2013-08-13 10:02:00,67.3,65.8,29.84,SSE,158,5.2,9.5,95,0.00,OVC,,0.42,WeatherDisplay:10.37,2013-08-13 14:02:00,
2013-08-13 10:07:00,67.6,66.1,29.85,SSE,158,4.9,6.1,95,0.00,OVC,,0.42,WeatherDisplay:10.37,2013-08-13 14:07:00,
2013-08-13 10:12:00,68.2,66.4,29.85,SSE,158,6.0,10.4,94,0.00,OVC,,0.42,WeatherDisplay:10.37,2013-08-13 14:12:00,
2013-08-13 10:17:00,68.9,67.1,29.84,SSE,158,3.8,5.3,94,0.00,OVC,,0.42,WeatherDisplay:10.37,2013-08-13 14:17:00,
2013-08-13 10:22:00,68.7,66.6,29.84,SSE,158,3.0,5.8,93,0.00,OVC,,0.42,WeatherDisplay:10.37,2013-08-13 14:22:00,
2013-08-13 10:27:00,68.9,66.8,29.84,SSE,158,4.7,5.8,93,0.00,OVC,,0.42,WeatherDisplay:10.37,2013-08-13 14:27:00,
2013-08-13 10:32:00,68.9,66.8,29.84,SSE,158,5.4,7.0,93,0.00,OVC,,0.42,WeatherDisplay:10.37,2013-08-13 14:32:00,
2013-08-13 10:37:00,68.7,66.6,29.84,SSE,158,4.5,8.1,93,0.00,OVC,,0.42,WeatherDisplay:10.37,2013-08-13 14:37:00,
2013-08-13 10:42:00,68.7,66.6,29.84,SSE,158,7.4,9.2,93,0.00,OVC,,0.42,WeatherDisplay:10.37,2013-08-13 14:42:00,
2013-08-13 10:47:00,68.5,66.7,29.84,SSE,158,4.3,10.4,94,0.00,OVC,,0.42,WeatherDisplay:10.37,2013-08-13 14:47:00,
2013-08-13 10:52:00,68.9,67.1,29.84,SSE,158,3.4,5.8,94,0.00,OVC,,0.42,WeatherDisplay:10.37,2013-08-13 14:52:00,
2013-08-13 10:57:00,69.1,67.0,29.85,SSE,158,2.3,4.6,93,0.00,OVC,,0.42,WeatherDisplay:10.37,2013-08-13 14:57:00,
2013-08-13 11:02:00,69.4,67.3,29.85,SSE,158,3.4,6.9,93,0.00,OVC,,0.42,WeatherDisplay:10.37,2013-08-13 15:02:00,
2013-08-13 11:07:00,69.6,67.2,29.85,SSE,158,3.4,5.8,92,0.00,OVC,,0.42,WeatherDisplay:10.37,2013-08-13 15:07:00,
2013-08-13 11:12:00,69.8,67.4,29.85,SSE,158,5.2,6.1,92,0.00,OVC,,0.42,WeatherDisplay:10.37,2013-08-13 15:12:00,
2013-08-13 11:17:00,69.8,67.4,29.85,SSE,158,4.9,6.1,92,0.00,OVC,,0.42,WeatherDisplay:10.37,2013-08-13 15:17:00,
2013-08-13 11:22:00,70.0,67.6,29.85,SSE,158,5.6,7.0,92,0.00,OVC,,0.42,WeatherDisplay:10.37,2013-08-13 15:22:00,
2013-08-13 11:27:00,70.5,67.7,29.85,SSE,158,4.3,5.8,91,0.00,OVC,,0.42,WeatherDisplay:10.37,2013-08-13 15:27:00,
2013-08-13 11:32:00,71.1,68.3,29.84,SSE,158,4.5,8.7,91,0.00,OVC,,0.42,WeatherDisplay:10.37,2013-08-13 15:32:00,
2013-08-13 11:37:00,71.4,68.3,29.84,SSE,158,4.7,5.8,90,0.00,OVC,,0.42,WeatherDisplay:10.37,2013-08-13 15:37:00,
2013-08-13 11:42:00,72.7,68.9,29.84,WSW,248,6.3,11.5,88,0.00,OVC,,0.42,WeatherDisplay:10.37,2013-08-13 15:42:00,
2013-08-13 11:47:00,72.3,68.5,29.84,SSE,158,5.1,15.0,88,0.00,OVC,,0.42,WeatherDisplay:10.37,2013-08-13 15:47:00,
2013-08-13 11:52:00,72.9,68.5,29.85,NNW,338,6.9,9.5,86,0.00,OVC,,0.42,WeatherDisplay:10.37,2013-08-13 15:52:00,
2013-08-13 11:57:00,73.2,69.1,29.85,SSE,158,5.2,8.1,87,0.00,OVC,,0.42,WeatherDisplay:10.37,2013-08-13 15:57:00,
2013-08-13 12:02:00,72.9,68.8,29.85,WSW,248,5.0,10.4,87,0.00,OVC,,0.42,WeatherDisplay:10.37,2013-08-13 16:02:00,
2013-08-13 12:07:00,74.1,69.6,29.85,SSE,158,4.7,7.0,86,0.00,OVC,,0.42,WeatherDisplay:10.37,2013-08-13 16:07:00,
2013-08-13 12:12:00,73.4,69.0,29.85,SSE,158,4.9,8.1,86,0.00,OVC,,0.42,WeatherDisplay:10.37,2013-08-13 16:12:00,
2013-08-13 12:17:00,74.8,69.3,29.84,SSE,158,6.4,9.2,83,0.00,OVC,,0.42,WeatherDisplay:10.37,2013-08-13 16:17:00,
2013-08-13 12:22:00,74.1,69.0,29.84,SSW,202,5.0,9.2,84,0.00,OVC,,0.42,WeatherDisplay:10.37,2013-08-13 16:22:00,
2013-08-13 12:27:00,73.9,68.8,29.84,SSE,158,11.0,17.1,84,0.00,OVC,,0.42,WeatherDisplay:10.37,2013-08-13 16:27:00,
2013-08-13 12:32:00,73.2,68.8,29.84,SSE,158,5.2,6.1,86,0.00,-RA,,0.42,WeatherDisplay:10.37,2013-08-13 16:32:00,
2013-08-13 12:37:00,74.3,69.1,29.84,SSE,158,4.2,5.8,84,0.00,-RA,,0.42,WeatherDisplay:10.37,2013-08-13 16:37:00,
2013-08-13 12:42:00,74.1,69.0,29.83,SSE,158,4.1,4.6,84,0.00,-RA,,0.42,WeatherDisplay:10.37,2013-08-13 16:42:00,
2013-08-13 12:47:00,73.8,68.7,29.83,SSE,158,4.3,9.2,84,0.00,-RA,,0.42,WeatherDisplay:10.37,2013-08-13 16:47:00,
2013-08-13 12:52:00,73.2,68.4,29.83,NNW,338,2.4,4.6,85,0.00,-RA,,0.42,WeatherDisplay:10.37,2013-08-13 16:52:00,
2013-08-13 12:57:00,73.8,69.0,29.83,NE,45,1.5,6.1,85,0.00,-RA,,0.42,WeatherDisplay:10.37,2013-08-13 16:57:00,
2013-08-13 12:58:00,73.9,69.1,29.83,NE,45,5.7,7.0,85,0.00,-RA,,0.42,WeatherDisplay:10.37,2013-08-13 16:58:00,
2013-08-13 13:03:00,74.3,68.8,29.83,NE,45,3.9,5.8,83,0.00,BKN,,0.42,WeatherDisplay:10.37,2013-08-13 17:03:00,
2013-08-13 13:08:00,74.3,69.5,29.82,NE,45,3.4,3.6,85,0.00,BKN,,0.43,WeatherDisplay:10.37,2013-08-13 17:08:00,
2013-08-13 13:13:00,73.8,69.3,29.82,NE,45,0.0,6.1,86,0.02,RA,,0.44,WeatherDisplay:10.37,2013-08-13 17:13:00,
2013-08-13 13:18:00,72.5,69.7,29.83,NE,45,2.7,3.6,91,0.02,RA,,0.44,WeatherDisplay:10.37,2013-08-13 17:18:00,
2013-08-13 13:23:00,72.3,69.5,29.83,NE,45,3.2,4.6,91,0.02,RA,,0.44,WeatherDisplay:10.37,2013-08-13 17:23:00,
2013-08-13 13:28:00,72.9,70.8,29.83,NE,45,3.0,4.6,93,0.02,BKN,,0.44,WeatherDisplay:10.37,2013-08-13 17:28:00,
2013-08-13 13:33:00,72.9,70.4,29.83,NE,45,3.4,4.6,92,0.02,BKN,,0.44,WeatherDisplay:10.37,2013-08-13 17:33:00,
2013-08-13 13:38:00,73.8,71.0,29.83,NE,45,3.2,5.8,91,0.02,BKN,,0.44,WeatherDisplay:10.37,2013-08-13 17:38:00,
2013-08-13 13:43:00,74.1,70.3,29.83,West,270,6.7,9.2,88,0.02,BKN,,0.44,WeatherDisplay:10.37,2013-08-13 17:43:00,
2013-08-13 13:48:00,75.2,70.7,29.83,NW,315,2.8,5.8,86,0.02,BKN,,0.44,WeatherDisplay:10.37,2013-08-13 17:48:00,
2013-08-13 13:53:00,75.7,69.8,29.82,WNW,292,3.6,4.6,82,0.02,BKN,,0.44,WeatherDisplay:10.37,2013-08-13 17:53:00,
2013-08-13 13:58:00,75.6,70.1,29.82,WNW,292,2.6,3.6,83,0.02,BKN,,0.44,WeatherDisplay:10.37,2013-08-13 17:58:00,
2013-08-13 14:03:00,75.2,70.0,29.82,WNW,292,3.2,4.6,84,0.02,BKN,,0.44,WeatherDisplay:10.37,2013-08-13 18:03:00,
2013-08-13 14:08:00,76.5,67.2,29.83,WNW,292,2.8,5.3,73,0.02,BKN,,0.44,WeatherDisplay:10.37,2013-08-13 18:08:00,
2013-08-13 14:13:00,77.9,67.7,29.83,WNW,292,4.4,10.4,71,0.00,BKN,,0.44,WeatherDisplay:10.37,2013-08-13 18:13:00,
2013-08-13 14:18:00,77.9,65.6,29.82,West,270,5.0,5.8,66,0.00,BKN,,0.44,WeatherDisplay:10.37,2013-08-13 18:18:00,
2013-08-13 14:23:00,79.2,67.3,29.82,NNE,22,3.1,7.0,67,0.00,BKN,,0.44,WeatherDisplay:10.37,2013-08-13 18:23:00,
2013-08-13 14:29:00,78.1,66.2,29.82,West,270,13.8,13.8,67,0.00,BKN,,0.44,WeatherDisplay:10.37,2013-08-13 18:29:00,
2013-08-13 14:34:00,78.6,65.8,29.82,NW,315,3.6,8.1,65,0.00,BKN,,0.44,WeatherDisplay:10.37,2013-08-13 18:34:00,
2013-08-13 14:40:00,79.7,65.5,29.83,NNW,335,9.0,13.0,62,0.00,BKN,BKN,0.44,WeatherDisplay:10.37,2013-08-13 18:40:00,
2013-08-13 14:45:00,78.6,65.8,29.83,North,360,7.3,9.5,65,0.00,BKN,,0.44,WeatherDisplay:10.37,2013-08-13 18:45:00,
2013-08-13 14:50:00,78.8,65.6,29.83,ENE,68,4.7,8.1,64,0.00,BKN,,0.44,WeatherDisplay:10.37,2013-08-13 18:50:00,
2013-08-13 14:55:00,76.5,65.1,29.82,ENE,68,4.6,6.1,68,0.00,BKN,,0.44,WeatherDisplay:10.37,2013-08-13 18:55:00,
2013-08-13 15:00:00,78.6,66.3,29.82,ENE,68,4.8,7.0,66,0.00,BKN,,0.44,WeatherDisplay:10.37,2013-08-13 19:00:00,
2013-08-13 15:05:00,78.4,65.2,29.83,West,270,6.9,11.5,64,0.00,BKN,,0.44,WeatherDisplay:10.37,2013-08-13 19:05:00,
2013-08-13 15:10:00,79.3,65.1,29.83,North,360,6.1,11.5,62,0.00,BKN,,0.44,WeatherDisplay:10.37,2013-08-13 19:10:00,
2013-08-13 15:15:00,80.1,64.5,29.83,NNE,22,7.8,11.5,59,0.00,BKN,,0.44,WeatherDisplay:10.37,2013-08-13 19:15:00,
2013-08-13 15:20:00,78.4,64.8,29.82,NW,315,8.2,11.5,63,0.00,BKN,,0.44,WeatherDisplay:10.37,2013-08-13 19:20:00,
2013-08-13 15:25:00,76.8,65.4,29.82,North,360,6.3,13.8,68,0.00,BKN,,0.44,WeatherDisplay:10.37,2013-08-13 19:25:00,
2013-08-13 15:30:00,78.3,66.4,29.83,North,360,7.1,9.2,67,0.00,BKN,,0.44,WeatherDisplay:10.37,2013-08-13 19:30:00,
2013-08-13 15:35:00,78.4,65.7,29.83,NNW,338,8.8,10.4,65,0.00,BKN,,0.44,WeatherDisplay:10.37,2013-08-13 19:35:00,
2013-08-13 15:40:00,78.4,65.7,29.82,NNE,22,5.4,9.2,65,0.00,BKN,,0.44,WeatherDisplay:10.37,2013-08-13 19:40:00,
2013-08-13 15:45:00,79.3,66.5,29.82,NE,45,8.5,12.1,65,0.00,BKN,,0.44,WeatherDisplay:10.37,2013-08-13 19:45:00,
2013-08-13 15:50:00,78.4,65.2,29.82,South,180,7.0,9.2,64,0.00,BKN,,0.44,WeatherDisplay:10.37,2013-08-13 19:50:00,
2013-08-13 15:55:00,79.2,64.6,29.82,ENE,68,10.1,18.4,61,0.00,BKN,,0.44,WeatherDisplay:10.37,2013-08-13 19:55:00,
2013-08-13 16:00:00,79.0,64.4,29.82,NE,45,6.2,12.7,61,0.00,BKN,,0.44,WeatherDisplay:10.37,2013-08-13 20:00:00,
2013-08-13 16:05:00,78.8,64.7,29.82,South,180,6.1,10.4,62,0.00,BKN,,0.44,WeatherDisplay:10.37,2013-08-13 20:05:00,
2013-08-13 16:10:00,78.1,64.5,29.82,NNW,338,7.6,11.5,63,0.00,BKN,,0.44,WeatherDisplay:10.37,2013-08-13 20:10:00,
2013-08-13 16:15:00,81.5,65.3,29.82,ENE,68,3.7,9.2,58,0.00,BKN,,0.44,WeatherDisplay:10.37,2013-08-13 20:15:00,
2013-08-13 16:20:00,77.9,64.7,29.82,NE,45,5.1,8.1,64,0.00,BKN,,0.44,WeatherDisplay:10.37,2013-08-13 20:20:00,
2013-08-13 16:25:00,77.5,64.4,29.82,ENE,68,4.3,10.4,64,0.00,BKN,,0.44,WeatherDisplay:10.37,2013-08-13 20:25:00,
2013-08-13 16:30:00,76.6,64.8,29.82,WNW,292,6.2,9.5,67,0.00,BKN,,0.44,WeatherDisplay:10.37,2013-08-13 20:30:00,
2013-08-13 16:35:00,77.2,64.1,29.82,North,360,6.0,8.7,64,0.00,SCT,,0.44,WeatherDisplay:10.37,2013-08-13 20:35:00,
2013-08-13 16:40:00,77.4,64.3,29.82,ENE,68,6.5,9.2,64,0.00,SCT,,0.44,WeatherDisplay:10.37,2013-08-13 20:40:00,
2013-08-13 16:45:00,77.4,63.8,29.82,SW,225,6.1,7.0,63,0.00,SCT,,0.44,WeatherDisplay:10.37,2013-08-13 20:45:00,
2013-08-13 16:50:00,76.6,64.4,29.82,SW,225,1.7,3.5,66,0.00,SCT,,0.44,WeatherDisplay:10.37,2013-08-13 20:50:00,
2013-08-13 16:55:00,77.9,66.1,29.82,ENE,68,3.8,7.8,67,0.00,SCT,,0.44,WeatherDisplay:10.37,2013-08-13 20:55:00,
2013-08-13 17:00:00,79.7,64.1,29.82,ENE,68,8.8,15.4,59,0.00,SCT,,0.44,WeatherDisplay:10.37,2013-08-13 21:00:00,
2013-08-13 17:05:00,79.0,64.9,29.83,WSW,248,6.0,8.7,62,0.00,SCT,,0.44,WeatherDisplay:10.37,2013-08-13 21:05:00,
2013-08-13 17:10:00,79.2,65.1,29.83,WSW,248,3.9,4.6,62,0.00,SCT,,0.44,WeatherDisplay:10.37,2013-08-13 21:10:00,
2013-08-13 17:15:00,79.0,64.4,29.83,West,270,3.8,6.1,61,0.00,SCT,,0.44,WeatherDisplay:10.37,2013-08-13 21:15:00,
2013-08-13 17:20:00,76.8,64.6,29.83,WSW,248,4.8,6.1,66,0.00,SCT,,0.44,WeatherDisplay:10.37,2013-08-13 21:20:00,
2013-08-13 17:25:00,75.6,63.9,29.83,NW,315,3.3,5.8,67,0.00,SCT,,0.44,WeatherDisplay:10.37,2013-08-13 21:25:00,
2013-08-13 17:30:00,75.7,64.0,29.83,NW,315,3.8,6.1,67,0.00,SCT,,0.44,WeatherDisplay:10.37,2013-08-13 21:30:00,
2013-08-13 17:35:00,76.5,64.7,29.83,NW,315,0.5,2.7,67,0.00,SCT,,0.44,WeatherDisplay:10.37,2013-08-13 21:35:00,
2013-08-13 17:40:00,77.9,64.3,29.83,NW,315,5.9,10.4,63,0.00,SCT,,0.44,WeatherDisplay:10.37,2013-08-13 21:40:00,
2013-08-13 17:45:00,77.9,64.3,29.83,NE,45,3.3,4.6,63,0.00,SCT,,0.44,WeatherDisplay:10.37,2013-08-13 21:45:00,
2013-08-13 17:50:00,78.1,64.0,29.83,NE,45,3.1,4.6,62,0.00,SCT,,0.44,WeatherDisplay:10.37,2013-08-13 21:50:00,
2013-08-13 17:55:00,77.4,64.3,29.84,NE,45,7.3,11.2,64,0.00,SCT,,0.44,WeatherDisplay:10.37,2013-08-13 21:55:00,
2013-08-13 18:00:00,76.1,62.1,29.84,NE,45,9.4,12.7,62,0.00,SCT,,0.44,WeatherDisplay:10.37,2013-08-13 22:00:00,
2013-08-13 18:05:00,76.3,63.7,29.84,NE,45,6.5,12.7,65,0.00,SCT,,0.44,WeatherDisplay:10.37,2013-08-13 22:05:00,
2013-08-13 18:10:00,75.7,64.0,29.83,NE,45,3.6,3.6,67,0.00,SCT,,0.44,WeatherDisplay:10.37,2013-08-13 22:10:00,
2013-08-13 18:15:00,75.0,63.3,29.83,WNW,292,7.2,9.2,67,0.00,SCT,,0.44,WeatherDisplay:10.37,2013-08-13 22:15:00,
2013-08-13 18:20:00,75.2,63.1,29.84,NE,45,4.6,9.2,66,0.00,SCT,,0.44,WeatherDisplay:10.37,2013-08-13 22:20:00,
2013-08-13 18:25:00,74.7,62.6,29.84,NE,45,8.2,16.1,66,0.00,SCT,,0.44,WeatherDisplay:10.37,2013-08-13 22:25:00,
2013-08-13 18:30:00,74.3,62.6,29.84,NE,45,4.6,6.1,67,0.00,SCT,,0.44,WeatherDisplay:10.37,2013-08-13 22:30:00,
2013-08-13 18:35:00,73.9,62.7,29.84,NE,45,6.6,12.7,68,0.00,SCT,,0.44,WeatherDisplay:10.37,2013-08-13 22:35:00,
2013-08-13 18:40:00,73.2,62.8,29.84,NNW,338,8.7,11.2,70,0.00,SCT,,0.44,WeatherDisplay:10.37,2013-08-13 22:40:00,
2013-08-13 18:45:00,72.9,62.1,29.84,East,90,8.1,13.8,69,0.00,SCT,,0.44,WeatherDisplay:10.37,2013-08-13 22:45:00,
2013-08-13 18:50:00,72.5,61.3,29.84,ENE,68,8.9,11.2,68,0.00,SCT,,0.44,WeatherDisplay:10.37,2013-08-13 22:50:00,
2013-08-13 18:55:00,72.5,61.3,29.85,North,360,7.0,8.1,68,0.00,SCT,,0.44,WeatherDisplay:10.37,2013-08-13 22:55:00,
2013-08-13 19:00:00,72.1,61.8,29.85,ENE,68,4.1,5.8,70,0.00,SCT,,0.44,WeatherDisplay:10.37,2013-08-13 23:00:00,
2013-08-13 19:05:00,72.1,61.8,29.86,ENE,68,3.4,5.8,70,0.00,SCT,,0.44,WeatherDisplay:10.37,2013-08-13 23:05:00,
2013-08-13 19:10:00,71.2,61.3,29.86,North,360,4.2,6.1,71,0.00,SCT,,0.44,WeatherDisplay:10.37,2013-08-13 23:10:00,
2013-08-13 19:15:00,71.2,61.3,29.86,NE,45,7.9,10.4,71,0.00,SCT,,0.44,WeatherDisplay:10.37,2013-08-13 23:15:00,
2013-08-13 19:20:00,70.5,60.6,29.86,NE,45,7.2,13.8,71,0.00,SCT,,0.44,WeatherDisplay:10.37,2013-08-13 23:20:00,
2013-08-13 19:25:00,70.2,60.4,29.86,NE,45,6.7,9.2,71,0.00,SCT,,0.44,WeatherDisplay:10.37,2013-08-13 23:25:00,
2013-08-13 19:30:00,69.8,60.0,29.87,East,90,6.8,8.7,71,0.00,SCT,,0.44,WeatherDisplay:10.37,2013-08-13 23:30:00,
2013-08-13 19:35:00,69.6,60.2,29.87,NW,315,3.5,9.2,72,0.00,SCT,,0.44,WeatherDisplay:10.37,2013-08-13 23:35:00,
2013-08-13 19:40:00,69.3,59.9,29.88,NE,45,4.6,5.8,72,0.00,SCT,,0.44,WeatherDisplay:10.37,2013-08-13 23:40:00,
2013-08-13 19:45:00,68.9,59.5,29.88,NNE,22,5.6,10.4,72,0.00,SCT,,0.44,WeatherDisplay:10.37,2013-08-13 23:45:00,
2013-08-13 19:50:00,68.5,59.1,29.88,NNW,338,7.2,11.5,72,0.00,SCT,,0.44,WeatherDisplay:10.37,2013-08-13 23:50:00,
2013-08-13 19:55:00,68.4,59.4,29.88,NE,45,5.9,11.5,73,0.00,SCT,,0.44,WeatherDisplay:10.37,2013-08-13 23:55:00,
2013-08-13 20:00:00,68.0,59.0,29.88,NW,315,7.1,9.5,73,0.00,SCT,,0.44,WeatherDisplay:10.37,2013-08-14 00:00:00,
2013-08-13 20:05:00,68.0,59.0,29.88,NNE,22,9.1,11.5,73,0.00,SCT,,0.44,WeatherDisplay:10.37,2013-08-14 00:05:00,
2013-08-13 20:10:00,67.8,58.8,29.88,ENE,68,4.5,10.4,73,0.00,SCT,,0.44,WeatherDisplay:10.37,2013-08-14 00:10:00,
2013-08-13 20:15:00,67.5,58.5,29.88,North,360,4.5,6.9,73,0.00,SCT,,0.44,WeatherDisplay:10.37,2013-08-14 00:15:00,
2013-08-13 20:20:00,67.3,58.3,29.89,East,90,4.5,9.2,73,0.00,SCT,,0.44,WeatherDisplay:10.37,2013-08-14 00:20:00,
2013-08-13 20:25:00,67.1,58.5,29.89,ENE,68,3.7,9.2,74,0.00,SCT,,0.44,WeatherDisplay:10.37,2013-08-14 00:25:00,
2013-08-13 20:30:00,66.9,58.7,29.89,NW,315,6.8,7.8,75,0.00,SCT,,0.44,WeatherDisplay:10.37,2013-08-14 00:30:00,
2013-08-13 20:35:00,66.7,58.1,29.89,WNW,292,7.7,14.6,74,0.00,SCT,,0.44,WeatherDisplay:10.37,2013-08-14 00:35:00,
2013-08-13 20:40:00,66.7,57.8,29.90,NNE,22,8.2,11.2,73,0.00,SCT,,0.44,WeatherDisplay:10.37,2013-08-14 00:40:00,
2013-08-13 20:45:00,66.4,57.1,29.90,NE,45,8.5,9.5,72,0.00,SCT,,0.44,WeatherDisplay:10.37,2013-08-14 00:45:00,
2013-08-13 20:50:00,66.2,56.9,29.90,NE,45,10.0,12.1,72,0.00,SCT,,0.44,WeatherDisplay:10.37,2013-08-14 00:50:00,
2013-08-13 20:55:00,66.0,56.7,29.90,ENE,68,9.8,12.1,72,0.00,SCT,,0.44,WeatherDisplay:10.37,2013-08-14 00:55:00,
2013-08-13 21:00:00,65.8,56.9,29.90,ENE,68,6.6,8.7,73,0.00,SCT,,0.44,WeatherDisplay:10.37,2013-08-14 01:00:00,
2013-08-13 21:05:00,65.7,56.8,29.90,ESE,112,3.9,11.5,73,0.00,SCT,,0.44,WeatherDisplay:10.37,2013-08-14 01:05:00,
2013-08-13 21:10:00,65.7,57.6,29.90,NE,45,4.1,5.8,75,0.00,SCT,,0.44,WeatherDisplay:10.37,2013-08-14 01:10:00,
2013-08-13 21:15:00,65.7,57.2,29.91,NE,45,6.1,6.1,74,0.00,SCT,,0.44,WeatherDisplay:10.37,2013-08-14 01:15:00,
2013-08-13 21:20:00,65.5,57.0,29.91,East,90,4.8,7.0,74,0.00,SCT,,0.44,WeatherDisplay:10.37,2013-08-14 01:20:00,
2013-08-13 21:25:00,65.3,57.2,29.91,East,90,4.9,6.1,75,0.00,SCT,,0.44,WeatherDisplay:10.37,2013-08-14 01:25:00,
2013-08-13 21:31:00,65.1,57.0,29.92,East,90,4.6,9.2,75,0.00,SCT,,0.44,WeatherDisplay:10.37,2013-08-14 01:31:00,
2013-08-13 21:36:00,64.9,56.4,29.92,NE,45,7.0,8.7,74,0.00,BKN,,0.44,WeatherDisplay:10.37,2013-08-14 01:36:00,
2013-08-13 21:41:00,64.8,56.3,29.92,NE,45,6.1,7.8,74,0.00,BKN,,0.44,WeatherDisplay:10.37,2013-08-14 01:41:00,
2013-08-13 21:46:00,64.6,56.1,29.92,NE,45,4.7,9.2,74,0.00,BKN,,0.44,WeatherDisplay:10.37,2013-08-14 01:46:00,
2013-08-13 21:51:00,64.2,55.7,29.92,NE,45,9.0,9.5,74,0.00,BKN,,0.44,WeatherDisplay:10.37,2013-08-14 01:51:00,
2013-08-13 21:56:00,64.0,55.5,29.93,NW,315,6.2,9.2,74,0.00,BKN,,0.44,WeatherDisplay:10.37,2013-08-14 01:56:00,
2013-08-13 22:01:00,63.9,55.4,29.93,NE,45,8.6,13.8,74,0.00,BKN,,0.44,WeatherDisplay:10.37,2013-08-14 02:01:00,
2013-08-13 22:06:00,63.5,54.7,29.94,ENE,68,7.2,11.5,73,0.00,BKN,,0.44,WeatherDisplay:10.37,2013-08-14 02:06:00,
2013-08-13 22:11:00,63.3,54.5,29.94,NNE,22,8.5,11.5,73,0.00,BKN,,0.44,WeatherDisplay:10.37,2013-08-14 02:11:00,
2013-08-13 22:16:00,63.0,54.2,29.95,NE,45,7.3,9.2,73,0.00,BKN,,0.44,WeatherDisplay:10.37,2013-08-14 02:16:00,
2013-08-13 22:21:00,62.6,53.8,29.95,NW,315,9.1,13.8,73,0.00,BKN,,0.44,WeatherDisplay:10.37,2013-08-14 02:21:00,
2013-08-13 22:26:00,62.4,53.6,29.95,NE,45,9.7,12.9,73,0.00,BKN,,0.44,WeatherDisplay:10.37,2013-08-14 02:26:00,
2013-08-13 22:31:00,62.2,53.4,29.95,NE,45,7.3,11.5,73,0.00,BKN,,0.44,WeatherDisplay:10.37,2013-08-14 02:31:00,
2013-08-13 22:36:00,61.9,53.1,29.95,ENE,68,7.2,12.1,73,0.00,BKN,,0.44,WeatherDisplay:10.37,2013-08-14 02:36:00,
2013-08-13 22:41:00,61.7,53.0,29.95,ENE,68,7.8,10.4,73,0.00,BKN,,0.44,WeatherDisplay:10.37,2013-08-14 02:41:00,
2013-08-13 22:46:00,61.3,52.9,29.95,ENE,68,7.7,8.7,74,0.00,BKN,,0.44,WeatherDisplay:10.37,2013-08-14 02:46:00,
2013-08-13 22:51:00,61.0,53.4,29.96,ENE,68,1.8,5.8,76,0.00,BKN,,0.44,WeatherDisplay:10.37,2013-08-14 02:51:00,
2013-08-13 22:56:00,60.8,53.2,29.96,ENE,68,2.5,3.6,76,0.00,BKN,,0.44,WeatherDisplay:10.37,2013-08-14 02:56:00,
2013-08-13 23:01:00,60.4,52.8,29.96,NNE,22,4.7,5.8,76,0.00,BKN,,0.44,WeatherDisplay:10.37,2013-08-14 03:01:00,
2013-08-13 23:06:00,60.3,53.4,29.96,NNE,22,2.4,3.5,78,0.00,BKN,,0.44,WeatherDisplay:10.37,2013-08-14 03:06:00,
2013-08-13 23:11:00,59.9,54.1,29.96,NNE,22,0.0,0.0,81,0.00,BKN,,0.44,WeatherDisplay:10.37,2013-08-14 03:11:00,
2013-08-13 23:16:00,59.4,53.6,29.96,NNW,338,3.0,3.6,81,0.00,BKN,,0.44,WeatherDisplay:10.37,2013-08-14 03:16:00,
2013-08-13 23:21:00,59.0,53.5,29.97,NE,45,1.4,4.4,82,0.00,BKN,,0.44,WeatherDisplay:10.37,2013-08-14 03:21:00,
2013-08-13 23:26:00,58.6,52.1,29.97,NNE,22,4.2,9.2,79,0.00,BKN,,0.44,WeatherDisplay:10.37,2013-08-14 03:26:00,
2013-08-13 23:32:00,58.8,52.0,29.97,ENE,68,5.3,6.9,78,0.00,BKN,,0.44,WeatherDisplay:10.37,2013-08-14 03:32:00,
2013-08-13 23:36:00,58.8,52.0,29.97,NE,45,4.4,5.8,78,0.00,BKN,,0.44,WeatherDisplay:10.37,2013-08-14 03:36:00,
2013-08-13 23:42:00,58.8,51.6,29.97,NE,45,3.5,6.9,77,0.00,BKN,,0.44,WeatherDisplay:10.37,2013-08-14 03:42:00,
2013-08-13 23:47:00,58.6,51.4,29.97,NE,45,4.1,4.6,77,0.00,BKN,,0.44,WeatherDisplay:10.37,2013-08-14 03:47:00,
2013-08-13 23:52:00,58.5,51.7,29.97,NE,45,2.3,5.8,78,0.00,BKN,,0.44,WeatherDisplay:10.37,2013-08-14 03:52:00,
2013-08-13 23:57:00,58.1,52.0,29.97,NE,45,2.9,4.6,80,0.00,BKN,,0.44,WeatherDisplay:10.37,2013-08-14 03:57:00,